Data for 03/12/2014

Time Sea-Level Adjusted Pressure Absolute Pressure Temperature Relative Humidity Dew Point   
(mb) (inHg) (mb) (inHg) (C) (F) (%) (C) (F)
00:05 1027 30.33 856 25.28 -3.3 26.1 73 -7.4 18.8
00:10 1027 30.33 856 25.28 -3.3 26.1 73 -7.4 18.6
00:15 1027 30.33 856 25.28 -3.3 26.2 73 -7.5 18.5
00:20 1027 30.33 856 25.28 -3.2 26.2 71 -7.7 18.1
00:25 1027 30.33 856 25.28 -3.2 26.3 72 -7.6 18.4
00:30 1027 30.33 856 25.28 -3.2 26.2 72 -7.6 18.4
00:35 1027 30.33 856 25.28 -3.3 26.1 71 -7.7 18.1
00:40 1027 30.33 856 25.28 -3.2 26.3 71 -7.7 18.2
00:45 1027 30.33 856 25.28 -3.1 26.4 71 -7.6 18.4
00:50 1027 30.33 856 25.28 -3.2 26.2 73 -7.4 18.7
00:55 1027 30.33 856 25.28 -3.4 25.9 72 -7.8 18
01:00 1027 30.33 856 25.28 -3.3 26 71 -7.9 17.7
01:05 1027 30.33 856 25.28 -3.4 25.8 72 -7.7 18.1
01:10 1027 30.33 856 25.28 -3.6 25.5 73 -7.8 17.9
01:15 1027 30.33 856 25.28 -3.8 25.2 73 -8 17.6
01:20 1027 30.33 856 25.28 -3.9 25 73 -8.1 17.5
01:25 1027 30.33 856 25.28 -4 24.8 73 -8.1 17.5
01:30 1027 30.33 856 25.28 -3.8 25.1 72 -8.1 17.4
01:35 1027 30.33 856 25.28 -3.8 25.1 72 -8.1 17.4
01:40 1027 30.33 856 25.28 -3.8 25.2 72 -8.1 17.5
01:45 1027 30.33 856 25.28 -3.8 25.1 73 -8.1 17.5
01:50 1027 30.33 856 25.28 -3.9 25 73 -8 17.6
01:55 1027 30.33 856 25.28 -3.9 24.9 74 -7.9 17.8
02:00 1027 30.33 856 25.28 -4 24.9 73 -8.2 17.3
02:05 1027 30.33 856 25.28 -3.8 25.1 71 -8.3 17
02:10 1027 30.33 856 25.28 -3.8 25.2 71 -8.3 17.1
02:15 1027 30.33 856 25.28 -4 24.8 72 -8.4 16.9
02:20 1027 30.33 856 25.28 -4.2 24.4 72 -8.5 16.7
02:25 1027 30.33 856 25.28 -4.5 23.9 73 -8.7 16.4
02:30 1027 30.33 856 25.28 -4.7 23.5 74 -8.6 16.5
02:35 1027 30.33 856 25.28 -4.8 23.4 77 -8.3 17.1
02:40 1027 30.33 856 25.28 -5 23 78 -8.3 17
02:45 1027 30.33 856 25.28 -5 23 76 -8.6 16.5
02:50 1027 30.33 856 25.28 -4.7 23.5 74 -8.7 16.3
02:55 1027 30.33 856 25.28 -4.8 23.3 75 -8.6 16.5
03:00 1027 30.33 856 25.28 -4.9 23.2 75 -8.7 16.4
03:05 1027 30.33 856 25.28 -4.7 23.5 74 -8.7 16.4
03:10 1027 30.33 856 25.28 -4.5 23.8 74 -8.5 16.7
03:15 1027 30.33 856 25.28 -4.7 23.5 75 -8.4 16.8
03:20 1027 30.33 856 25.28 -4.8 23.3 76 -8.5 16.8
03:25 1027 30.33 856 25.28 -4.9 23.2 76 -8.4 16.8
03:30 1027 30.33 856 25.28 -4.8 23.4 76 -8.4 16.8
03:35 1027 30.33 856 25.28 -4.6 23.7 75 -8.4 16.8
03:40 1027 30.33 856 25.28 -4.6 23.7 75 -8.3 17
03:45 1027 30.33 856 25.28 -4.9 23.2 77 -8.3 17.1
03:50 1027 30.33 856 25.28 -5 23 77 -8.4 16.8
03:55 1027 30.33 856 25.28 -5 23 77 -8.5 16.6
04:00 1027 30.33 856 25.28 -4.9 23.2 77 -8.4 16.9
04:05 1027 30.33 856 25.28 -4.8 23.3 77 -8.3 17
04:10 1027 30.33 856 25.28 -4.7 23.6 77 -8.2 17.3
04:15 1027 30.33 856 25.28 -4.7 23.6 77 -8.1 17.4
04:20 1027 30.33 856 25.28 -4.5 23.8 76 -8.1 17.5
04:25 1027 30.33 856 25.28 -4.6 23.8 76 -8.2 17.3
04:30 1027 30.33 856 25.28 -4.5 23.9 75 -8.3 17.1
04:35 1027 30.33 856 25.28 -4.4 24 75 -8.2 17.2
04:40 1027 30.33 856 25.28 -4.4 24.1 75 -8.2 17.3
04:45 1027 30.33 856 25.28 -4.4 24 75 -8.3 17.1
04:50 1027 30.33 856 25.28 -4.3 24.2 75 -8.1 17.4
04:55 1027 30.33 856 25.28 -4.4 24.2 77 -7.8 17.9
05:00 1027 30.33 856 25.28 -4.5 23.9 77 -8 17.6
05:05 1027 30.33 856 25.28 -4.3 24.3 75 -8.1 17.4
05:10 1027 30.33 856 25.28 -4.2 24.4 74 -8.3 17.1
05:15 1027 30.33 856 25.28 -4.2 24.4 74 -8.2 17.2
05:20 1027 30.33 856 25.28 -4.2 24.4 74 -8.2 17.3
05:25 1027 30.33 856 25.28 -4.1 24.6 75 -7.9 17.8
05:30 1027 30.33 856 25.28 -4.2 24.4 74 -8.2 17.3
05:35 1027 30.33 856 25.28 -4.1 24.6 74 -8.1 17.4
05:40 1027 30.33 856 25.28 -4.1 24.6 74 -8 17.6
05:45 1027 30.33 856 25.28 -4.2 24.5 74 -8.1 17.5
05:50 1027 30.33 856 25.28 -4.3 24.3 73 -8.4 16.9
05:55 1027 30.33 856 25.28 -4.5 23.9 74 -8.4 16.8
06:00 1027 30.33 856 25.28 -4.4 24 74 -8.3 17
06:05 1027 30.33 856 25.28 -4.4 24.1 73 -8.5 16.8
06:10 1027 30.33 856 25.28 -4.4 24 74 -8.4 16.9
06:15 1027 30.33 856 25.28 -4.5 23.9 75 -8.2 17.2
06:20 1027 30.33 856 25.28 -4.6 23.7 74 -8.6 16.6
06:25 1027 30.33 856 25.28 -4.8 23.4 75 -8.6 16.5
06:30 1027 30.33 856 25.28 -4.7 23.5 74 -8.6 16.5
06:35 1027 30.33 856 25.28 -4.8 23.4 75 -8.6 16.6
06:40 1026 30.3 856 25.28 -4.7 23.5 75 -8.5 16.7
06:45 1026 30.3 856 25.28 -4.9 23.3 76 -8.5 16.8
06:50 1026 30.3 856 25.28 -5 23 78 -8.4 16.9
06:55 1026 30.3 856 25.28 -4.9 23.3 76 -8.4 16.9
07:00 1026 30.3 856 25.28 -4.7 23.5 77 -8.2 17.2
07:05 1026 30.3 856 25.28 -4.7 23.5 76 -8.3 17.1
07:10 1026 30.3 856 25.28 -4.7 23.5 76 -8.2 17.2
07:15 1026 30.3 856 25.28 -4.7 23.6 75 -8.4 16.9
07:20 1026 30.3 856 25.28 -4.5 24 74 -8.4 16.9
07:25 1026 30.3 856 25.28 -4.4 24.2 74 -8.3 17
07:30 1027 30.33 856 25.28 -4.3 24.2 74 -8.3 17
07:35 1027 30.33 856 25.28 -4.4 24.1 76 -8 17.5
07:40 1027 30.33 856 25.28 -4.4 24.1 76 -8 17.5
07:45 1027 30.33 856 25.28 -4.2 24.4 75 -8 17.6
07:50 1027 30.33 856 25.28 -3.9 24.9 74 -7.9 17.7
07:55 1027 30.33 856 25.28 -3.3 26.1 70 -7.9 17.7
08:00 1027 30.33 856 25.28 -3.7 25.3 72 -8.1 17.3
08:05 1027 30.33 856 25.28 -3 26.5 68 -8.2 17.2
08:10 1027 30.33 856 25.28 -2.4 27.7 66 -8 17.7
08:15 1027 30.33 856 25.28 -2.4 27.7 66 -8 17.7
08:20 1027 30.33 856 25.28 -2.3 27.8 65 -7.9 17.7
08:25 1027 30.33 856 25.28 -2.6 27.2 68 -7.8 17.9
08:30 1027 30.33 856 25.28 -2.2 28 63 -8.4 17
08:35 1027 30.33 856 25.28 -1.8 28.8 63 -7.9 17.7
08:40 1027 30.33 856 25.28 -0.7 30.7 58 -8 17.5
08:45 1027 30.33 856 25.28 -0.2 31.7 57 -7.8 18
08:50 1027 30.33 856 25.28 -0.2 31.6 57 -7.8 17.9
08:55 1027 30.33 856 25.28 -0.2 31.6 56 -7.9 17.8
09:00 1027 30.33 856 25.28 0.2 32.3 55 -7.9 17.8
09:05 1027 30.33 856 25.28 0.6 33.1 55 -7.5 18.4
09:10 1027 30.33 856 25.28 1.3 34.4 57 -6.3 20.6
09:15 1027 30.33 856 25.28 1.9 35.4 50 -7.4 18.8
09:20 1027 30.33 856 25.28 2 35.6 50 -7.3 18.9
09:25 1027 30.33 856 25.28 2.3 36.1 49 -7.4 18.6
09:30 1027 30.33 856 25.28 2.9 37.3 48 -7.1 19.2
09:35 1027 30.33 856 25.28 2.8 37 52 -6.1 21.1
09:40 1027 30.33 856 25.28 2 35.5 54 -6.4 20.4
09:45 1027 30.33 856 25.28 1.9 35.4 48 -7.9 17.8
09:50 1027 30.33 856 25.28 1.7 35.1 48 -8.2 17.3
09:55 1027 30.33 856 25.28 1.8 35.2 53 -6.8 19.8
10:00 1027 30.33 856 25.28 2.6 36.6 48 -7.4 18.7
10:05 1027 30.33 856 25.28 2.6 36.6 46 -8 17.5
10:10 1027 30.33 856 25.28 2.8 37 45 -8 17.5
10:15 1027 30.33 856 25.28 2.2 36 50 -7.2 19.1
10:20 1027 30.33 856 25.28 2 35.5 53 -6.7 19.9
10:25 1027 30.33 856 25.28 2.5 36.4 52 -6.4 20.5
10:30 1027 30.33 856 25.28 3 37.3 52 -6 21.2
10:35 1027 30.33 856 25.28 3.2 37.7 49 -6.7 20
10:40 1027 30.33 856 25.28 3.3 38 46 -7.3 18.8
10:45 1027 30.33 856 25.28 3.4 38.2 49 -6.3 20.7
10:50 1027 30.33 856 25.28 2.4 36.2 50 -7 19.4
10:55 1026 30.3 856 25.28 1.6 34.8 52 -7.2 19.1
11:00 1026 30.3 856 25.28 1.5 34.7 52 -7.4 18.7
11:05 1026 30.3 856 25.28 1.7 35 48 -8.1 17.3
11:10 1026 30.3 856 25.28 1.9 35.4 49 -7.7 18.1
11:15 1026 30.3 855 25.25 2 35.7 49 -7.7 18.1
11:20 1026 30.3 855 25.25 2 35.6 47 -8.3 17.1
11:25 1026 30.3 855 25.25 2.5 36.5 47 -7.7 18.1
11:30 1026 30.3 855 25.25 3.2 37.8 45 -7.7 18.2
11:35 1026 30.3 855 25.25 3.3 38 46 -7.3 18.8
11:40 1026 30.3 855 25.25 3.6 38.5 44 -7.6 18.3
11:45 1026 30.3 855 25.25 3.6 38.5 44 -7.5 18.5
11:50 1026 30.3 855 25.25 4.3 39.7 42 -7.4 18.6
11:55 1026 30.3 855 25.25 4.2 39.6 42 -7.5 18.5
12:00 1026 30.3 855 25.25 5 40.9 40 -7.5 18.6
12:05 1026 30.3 855 25.25 5.6 42 40 -7.1 19.2
12:10 1026 30.3 855 25.25 5.5 41.9 40 -7.1 19.2
12:15 1026 30.3 855 25.25 5.3 41.5 41 -7 19.4
12:20 1025 30.27 855 25.25 5.8 42.5 38 -7.3 18.9
12:25 1025 30.27 855 25.25 5.3 41.6 41 -6.8 19.8
12:30 1025 30.27 854 25.22 5.6 42.2 39 -7.1 19.2
12:35 1025 30.27 854 25.22 5.9 42.7 38 -7.5 18.6
12:40 1025 30.27 854 25.22 6.8 44.3 36 -7.3 18.8
12:45 1025 30.27 854 25.22 7.3 45.1 34 -7.6 18.4
12:50 1025 30.27 854 25.22 7.4 45.4 35 -7 19.4
12:55 1025 30.27 854 25.22 7.5 45.5 34 -7.5 18.5
13:00 1025 30.27 854 25.22 7.5 45.4 35 -6.9 19.6
13:05 1025 30.27 854 25.22 7.4 45.2 34 -7.7 18.2
13:10 1025 30.27 854 25.22 7.4 45.3 37 -6.4 20.6
13:15 1025 30.27 854 25.22 4.6 40.4 42 -7.2 19.1
13:20 1025 30.27 854 25.22 3.7 38.7 44 -7.3 18.8
13:25 1025 30.27 854 25.22 4.6 40.4 42 -7.3 18.8
13:30 1025 30.27 854 25.22 4.6 40.3 42 -7.3 18.9
13:35 1024 30.24 854 25.22 4.5 40.2 41 -7.6 18.3
13:40 1024 30.24 854 25.22 4.5 40.1 41 -7.7 18.1
13:45 1024 30.24 854 25.22 3.9 39 42 -7.8 17.9
13:50 1024 30.24 854 25.22 4.1 39.5 41 -7.9 17.8
13:55 1024 30.24 853 25.19 4.3 39.8 39 -8.3 17
14:00 1024 30.24 853 25.19 4.6 40.3 38 -8.6 16.5
14:05 1024 30.24 853 25.19 4.8 40.6 37 -8.6 16.6
14:10 1024 30.24 853 25.19 5.4 41.6 34 -9.4 15
14:15 1024 30.24 853 25.19 6.1 42.9 33 -9.2 15.5
14:20 1024 30.24 853 25.19 6.6 43.8 31 -9.2 15.4
14:25 1024 30.24 853 25.19 5.9 42.5 33 -9.2 15.5
14:30 1024 30.24 853 25.19 5.3 41.5 34 -9.5 14.8
14:35 1024 30.24 853 25.19 5 40.9 33 -10.1 13.7
14:40 1024 30.24 853 25.19 5.1 41.2 33 -10 14.1
14:45 1024 30.24 853 25.19 5.6 42.1 31 -10 14
14:50 1024 30.24 853 25.19 5.8 42.5 34 -9 15.9
14:55 1024 30.24 853 25.19 5.4 41.7 31 -10.4 13.3
15:00 1024 30.24 853 25.19 5.4 41.7 33 -9.5 14.8
15:05 1024 30.24 853 25.19 5.3 41.5 31 -10.5 13.1
15:10 1024 30.24 853 25.19 5.7 42.3 31 -10.1 13.9
15:15 1023 30.21 853 25.19 6.5 43.6 28 -10.9 12.3
15:20 1023 30.21 853 25.19 6.9 44.4 26 -11.1 12
15:25 1023 30.21 853 25.19 7.3 45.2 27 -10.5 13
15:30 1023 30.21 852 25.16 7.9 46.1 26 -10.3 13.5
15:35 1023 30.21 852 25.16 8.1 46.6 26 -10.5 13.1
15:40 1023 30.21 852 25.16 8.6 47.4 25 -10.4 13.4
15:45 1023 30.21 852 25.16 8.8 47.9 25 -10.2 13.7
15:50 1023 30.21 852 25.16 8.4 47.1 25 -10.5 13
15:55 1023 30.21 852 25.16 8 46.3 27 -10.1 13.7
16:00 1023 30.21 852 25.16 8.1 46.6 26 -10.1 13.9
16:05 1023 30.21 852 25.16 8 46.4 26 -10.4 13.2
16:10 1023 30.21 852 25.16 7.9 46.3 26 -10.4 13.4
16:15 1023 30.21 852 25.16 7.8 46 28 -9.7 14.5
16:20 1023 30.21 852 25.16 7.9 46.3 26 -10.4 13.3
16:25 1023 30.21 852 25.16 7.8 46 26 -10.4 13.3
16:30 1022 30.18 852 25.16 8 46.4 25 -10.8 12.5
16:35 1022 30.18 852 25.16 7.5 45.4 26 -11 12.1
16:40 1022 30.18 852 25.16 7.5 45.5 25 -11.3 11.6
16:45 1022 30.18 852 25.16 8.2 46.8 28 -9.4 15
16:50 1022 30.18 851 25.13 7.7 45.9 29 -9.2 15.5
16:55 1022 30.18 851 25.13 7.1 44.7 30 -9.3 15.3
17:00 1022 30.18 851 25.13 7.1 44.8 28 -10.1 13.8
17:05 1022 30.18 851 25.13 7 44.6 29 -9.6 14.7
17:10 1022 30.18 851 25.13 7.1 44.7 30 -9.2 15.4
17:15 1022 30.18 851 25.13 7.4 45.2 29 -9.5 14.9
17:20 1022 30.18 851 25.13 7.6 45.6 30 -9 15.9
17:25 1022 30.18 851 25.13 7.6 45.6 29 -9.2 15.4
17:30 1022 30.18 851 25.13 7.4 45.4 29 -9.6 14.8
17:35 1022 30.18 851 25.13 7.6 45.7 30 -9 15.8
17:40 1022 30.18 851 25.13 7.7 45.8 31 -8.5 16.6
17:45 1022 30.18 851 25.13 7.2 45 33 -7.8 17.9
17:50 1022 30.18 851 25.13 6.2 43.2 36 -7.6 18.3
17:55 1022 30.18 851 25.13 5.5 42 36 -8.4 16.8
18:00 1022 30.18 851 25.13 5.1 41.2 41 -6.9 19.5
18:05 1022 30.18 851 25.13 4.5 40.2 49 -5.2 22.6
18:10 1022 30.18 851 25.13 4.3 39.8 53 -4.4 24
18:15 1022 30.18 851 25.13 4.2 39.5 57 -3.7 25.3
18:20 1022 30.18 851 25.13 3.8 38.8 59 -3.5 25.6
18:25 1022 30.18 851 25.13 3.6 38.5 61 -3.3 26
18:30 1022 30.18 851 25.13 3.3 37.9 63 -3.2 26.2
18:35 1022 30.18 851 25.13 3 37.4 64 -3.1 26.5
18:40 1022 30.18 851 25.13 2.7 36.9 66 -3 26.6
18:45 1022 30.18 851 25.13 2.5 36.5 68 -2.8 26.9
18:50 1022 30.18 851 25.13 2.5 36.5 69 -2.7 27.2
18:55 1022 30.18 851 25.13 2.5 36.5 69 -2.7 27.2
19:00 1022 30.18 851 25.13 2.4 36.3 69 -2.7 27.2
19:05 1022 30.18 851 25.13 2 35.7 71 -2.7 27.1
19:10 1022 30.18 851 25.13 1.8 35.3 71 -2.8 27
19:15 1022 30.18 851 25.13 1.7 35.1 72 -2.7 27.1
19:20 1022 30.18 851 25.13 1.5 34.7 73 -2.9 26.8
19:25 1022 30.18 851 25.13 1.4 34.6 73 -2.9 26.7
19:30 1022 30.18 851 25.13 1.3 34.4 73 -3.1 26.5
19:35 1022 30.18 851 25.13 1.2 34.1 73 -3.2 26.3
19:40 1021 30.15 851 25.13 1.1 34 73 -3.2 26.2
19:45 1021 30.15 851 25.13 0.9 33.7 74 -3.3 26.1
19:50 1021 30.15 851 25.13 0.8 33.4 72 -3.6 25.4
19:55 1021 30.15 851 25.13 0.8 33.4 70 -4.1 24.7
20:00 1021 30.15 851 25.13 0.8 33.4 68 -4.5 23.8
20:05 1021 30.15 851 25.13 1 33.8 68 -4.3 24.3
20:10 1021 30.15 851 25.13 1 33.8 67 -4.4 24.1
20:15 1021 30.15 851 25.13 1.1 33.9 63 -5.3 22.5
20:20 1021 30.15 850 25.1 1.1 33.9 62 -5.5 22.2
20:25 1021 30.15 850 25.1 1.1 34 59 -6 21.2
20:30 1021 30.15 850 25.1 0.8 33.5 60 -6 21.2
20:35 1021 30.15 850 25.1 0.5 32.9 63 -5.8 21.5
20:40 1021 30.15 850 25.1 0.2 32.4 63 -6 21.3
20:45 1021 30.15 850 25.1 0.1 32.1 66 -5.6 21.9
20:50 1021 30.15 850 25.1 0 32.1 67 -5.4 22.2
20:55 1021 30.15 850 25.1 0 32.1 68 -5.1 22.8
21:00 1021 30.15 850 25.1 -0.1 31.9 69 -5.1 22.9
21:05 1021 30.15 850 25.1 -0 32 68 -5.3 22.5
21:10 1021 30.15 850 25.1 0.3 32.5 69 -4.7 23.5
21:15 1021 30.15 850 25.1 0.1 32.2 70 -4.6 23.7
21:20 1021 30.15 850 25.1 0.4 32.6 69 -4.7 23.5
21:25 1021 30.15 850 25.1 0.7 33.2 67 -4.7 23.6
21:30 1021 30.15 850 25.1 0.6 33.1 68 -4.6 23.6
21:35 1021 30.15 850 25.1 0.4 32.8 69 -4.7 23.5
21:40 1021 30.15 850 25.1 0.1 32.2 70 -4.8 23.4
21:45 1021 30.15 850 25.1 0.4 32.8 67 -4.9 23.2
21:50 1021 30.15 850 25.1 0.3 32.6 70 -4.6 23.7
21:55 1021 30.15 850 25.1 0 32 68 -5.1 22.8
22:00 1021 30.15 850 25.1 0.2 32.4 69 -4.8 23.4
22:05 1021 30.15 850 25.1 0.2 32.4 69 -4.9 23.2
22:10 1021 30.15 850 25.1 0 32 68 -5.2 22.6
22:15 1021 30.15 850 25.1 -0.1 31.9 68 -5.4 22.4
22:20 1021 30.15 850 25.1 0.1 32.2 66 -5.5 22.1
22:25 1021 30.15 850 25.1 0.2 32.3 68 -5.1 22.9
22:30 1021 30.15 850 25.1 -0.1 31.9 68 -5.3 22.4
22:35 1021 30.15 850 25.1 -0.2 31.7 67 -5.6 21.9
22:40 1020 30.12 850 25.1 -0.4 31.3 69 -5.5 22.2
22:45 1020 30.12 850 25.1 -0.7 30.8 69 -5.6 22
22:50 1020 30.12 850 25.1 -0.8 30.5 71 -5.4 22.3
22:55 1020 30.12 850 25.1 -1 30.1 72 -5.4 22.3
23:00 1020 30.12 849 25.07 -0.9 30.3 71 -5.5 22.2
23:05 1020 30.12 849 25.07 -0.9 30.4 72 -5.3 22.4
23:10 1020 30.12 849 25.07 -0.8 30.5 72 -5.4 22.3
23:15 1020 30.12 849 25.07 -0.9 30.4 72 -5.2 22.6
23:20 1020 30.12 849 25.07 -0.9 30.4 73 -5.2 22.6
23:25 1020 30.12 849 25.07 -1 30.3 73 -5.2 22.7
23:30 1020 30.12 849 25.07 -1.1 30.1 73 -5.3 22.5
23:35 1020 30.12 849 25.07 -0.6 30.8 70 -5.4 22.3
23:40 1020 30.12 849 25.07 -0.6 31 71 -5.2 22.7
23:45 1020 30.12 849 25.07 -1.1 30.1 73 -5.3 22.5
23:50 1020 30.12 849 25.07 -0.9 30.4 71 -5.5 22.1
23:55 1020 30.12 849 25.07 -1.2 29.8 73 -5.5 22.1
24:00 1020 30.12 849 25.07 -1.4 29.4 72 -5.8 21.6